createdAt,value
2018-05-14T00:04:29.334Z,99.70
2018-05-14T00:09:34.237Z,99.80
2018-05-14T00:14:38.444Z,99.60
2018-05-14T00:19:42.533Z,99.70
2018-05-14T00:24:49.488Z,99.70
2018-05-14T00:29:54.752Z,99.80
2018-05-14T00:34:58.775Z,99.70
2018-05-14T00:40:03.468Z,99.80
2018-05-14T00:45:07.353Z,99.60
2018-05-14T00:50:12.171Z,99.70
2018-05-14T00:55:18.517Z,99.90
2018-05-14T01:05:39.531Z,99.80
2018-05-14T01:10:49.558Z,99.90
2018-05-14T01:15:55.643Z,99.90
2018-05-14T01:21:01.154Z,99.90
2018-05-14T01:26:04.434Z,99.90
2018-05-14T01:31:08.905Z,99.90
2018-05-14T01:36:14.517Z,99.90
2018-05-14T01:41:23.268Z,99.90
2018-05-14T01:46:30.068Z,99.90
2018-05-14T01:51:34.715Z,99.90
2018-05-14T01:56:38.369Z,99.90
2018-05-14T02:01:46.308Z,99.90
2018-05-14T02:06:54.579Z,99.90
2018-05-14T02:11:59.346Z,99.90
2018-05-14T02:17:03.965Z,99.90
2018-05-14T02:22:10.111Z,99.90
2018-05-14T02:32:34.116Z,99.90
2018-05-14T02:37:51.762Z,99.90
2018-05-14T02:48:19.739Z,99.90
2018-05-14T02:53:24.975Z,99.90
2018-05-14T02:58:29.110Z,99.90
2018-05-14T03:03:35.298Z,99.90
2018-05-14T03:14:08.693Z,99.90
2018-05-14T03:19:22.361Z,99.90
2018-05-14T03:24:33.966Z,99.90
2018-05-14T03:29:48.556Z,99.90
2018-05-14T03:34:56.050Z,99.90
2018-05-14T03:40:12.071Z,99.90
2018-05-14T03:50:55.103Z,99.90
2018-05-14T03:56:11.589Z,99.90
2018-05-14T04:01:42.859Z,99.90
2018-05-14T04:12:57.979Z,99.90
2018-05-14T04:18:39.997Z,99.90
2018-05-14T04:23:53.700Z,99.90
2018-05-14T04:34:32.811Z,99.90
2018-05-14T04:45:04.728Z,99.90
2018-05-14T04:50:38.686Z,99.90
2018-05-14T05:01:34.472Z,99.90
2018-05-14T05:12:43.782Z,99.90
2018-05-14T05:17:47.300Z,99.90
2018-05-14T05:22:50.473Z,99.90
2018-05-14T05:27:54.640Z,99.90
2018-05-14T05:32:57.762Z,99.90
2018-05-14T05:38:01.148Z,99.90
2018-05-14T05:43:04.958Z,99.90
2018-05-14T05:53:14.051Z,99.90
2018-05-14T05:58:17.229Z,99.90
2018-05-14T06:03:21.085Z,99.90
2018-05-14T06:08:25.407Z,99.90
2018-05-14T06:18:33.318Z,99.90
2018-05-14T06:23:36.801Z,99.90
2018-05-14T06:28:39.893Z,99.90
2018-05-14T06:33:42.987Z,99.90
2018-05-14T06:38:46.862Z,99.90
2018-05-14T06:43:49.964Z,99.90
2018-05-14T06:48:53.855Z,99.90
2018-05-14T06:53:56.953Z,99.90
2018-05-14T06:59:01.498Z,99.90
2018-05-14T07:04:06.103Z,99.90
2018-05-14T07:09:10.705Z,99.90
2018-05-14T07:14:14.203Z,99.90
2018-05-14T07:19:18.182Z,99.90
2018-05-14T07:24:21.150Z,99.90
2018-05-14T07:29:24.251Z,99.90
2018-05-14T07:34:27.361Z,99.90
2018-05-14T07:39:31.237Z,99.90
2018-05-14T07:44:34.351Z,99.90
2018-05-14T07:54:42.286Z,99.90
2018-05-14T07:59:46.169Z,99.60
2018-05-14T08:04:50.397Z,99.70
2018-05-14T08:09:54.339Z,99.90
2018-05-14T08:14:58.349Z,98.90
2018-05-14T08:20:01.528Z,99.00
2018-05-14T08:25:04.667Z,98.70
2018-05-14T08:30:08.900Z,98.40
2018-05-14T08:35:12.773Z,98.90
2018-05-14T08:45:21.834Z,98.30
2018-05-14T08:50:25.331Z,98.10
2018-05-14T08:55:29.201Z,97.50
2018-05-14T09:00:32.289Z,96.90
2018-05-14T09:05:35.383Z,97.50
2018-05-14T09:10:39.236Z,96.90
2018-05-14T09:15:43.453Z,96.90
2018-05-14T09:20:46.561Z,96.40
2018-05-14T09:25:50.054Z,96.10
2018-05-14T09:30:53.156Z,95.50
2018-05-14T09:35:57.038Z,95.00
2018-05-14T09:41:00.906Z,94.20
2018-05-14T09:46:04.790Z,94.00
2018-05-14T09:51:10.204Z,93.90
2018-05-14T09:56:13.326Z,93.10
2018-05-14T10:01:16.475Z,92.50
2018-05-14T10:06:19.603Z,93.00
2018-05-14T10:11:22.707Z,92.70
2018-05-14T10:16:26.847Z,93.20
2018-05-14T10:21:30.714Z,93.00
2018-05-14T10:26:35.591Z,92.90
2018-05-14T10:31:38.750Z,92.10
2018-05-14T10:41:46.290Z,92.80
2018-05-14T10:46:49.471Z,91.70
2018-05-14T10:51:53.606Z,92.10
2018-05-14T10:56:58.213Z,91.50
2018-05-14T11:02:01.294Z,91.80
2018-05-14T11:07:04.770Z,90.90
2018-05-14T11:12:07.891Z,90.70
2018-05-14T11:17:10.979Z,91.20
2018-05-14T11:22:15.586Z,90.80
2018-05-14T11:27:18.688Z,90.30
2018-05-14T11:32:21.781Z,90.80
2018-05-14T11:37:24.888Z,91.20
2018-05-14T11:42:28.747Z,90.80
2018-05-14T11:52:37.457Z,92.00
2018-05-14T11:57:40.672Z,92.10
2018-05-14T12:02:44.223Z,92.10
2018-05-14T12:07:48.413Z,92.50
2018-05-14T12:12:52.266Z,91.80
2018-05-14T12:17:56.853Z,92.20
2018-05-14T12:22:59.939Z,92.60
2018-05-14T12:28:03.418Z,92.20
2018-05-14T12:33:06.907Z,91.80
2018-05-14T12:38:09.985Z,92.10
2018-05-14T12:48:17.542Z,91.50
2018-05-14T12:53:21.408Z,91.60
2018-05-14T12:58:24.893Z,91.90
2018-05-14T13:03:27.982Z,92.10
2018-05-14T13:08:31.833Z,92.30
2018-05-14T13:13:35.702Z,91.80
2018-05-14T13:18:39.433Z,92.00
2018-05-14T13:23:44.075Z,91.30
2018-05-14T13:28:47.223Z,92.00
2018-05-14T13:33:51.082Z,91.80
2018-05-14T13:38:55.328Z,91.80
2018-05-14T13:43:58.409Z,91.90
2018-05-14T13:49:02.109Z,91.30
2018-05-14T13:54:05.206Z,91.60
2018-05-14T13:59:09.111Z,90.70
2018-05-14T14:04:12.245Z,90.30
2018-05-14T14:09:15.762Z,90.70
2018-05-14T14:14:18.855Z,90.50
2018-05-14T14:19:21.957Z,90.40
2018-05-14T14:24:25.070Z,87.50
2018-05-14T14:29:28.920Z,86.50
2018-05-14T14:34:33.155Z,85.70
2018-05-14T14:39:36.256Z,84.00
2018-05-14T14:44:39.349Z,81.80
2018-05-14T14:49:42.845Z,72.40
2018-05-14T14:54:47.977Z,76.10
2018-05-14T14:59:51.458Z,71.90
2018-05-14T15:04:56.051Z,77.10
2018-05-14T15:09:59.981Z,73.80
2018-05-14T15:15:03.831Z,72.70
2018-05-14T15:20:08.111Z,72.40
2018-05-14T15:25:11.120Z,58.40
2018-05-14T15:30:14.633Z,60.60
2018-05-14T15:40:22.243Z,62.10
2018-05-14T15:45:25.342Z,64.00
2018-05-14T15:50:28.835Z,63.10
2018-05-14T15:55:32.684Z,63.30
2018-05-14T16:00:36.548Z,60.70
2018-05-14T16:05:39.635Z,60.00
2018-05-14T16:10:42.735Z,55.20
2018-05-14T16:15:47.314Z,55.40
2018-05-14T16:20:50.523Z,54.90
2018-05-14T16:25:53.507Z,54.80
2018-05-14T16:30:56.593Z,56.30
2018-05-14T16:35:59.971Z,53.70
2018-05-14T16:41:03.054Z,55.70
2018-05-14T16:46:06.144Z,57.10
2018-05-14T16:51:09.237Z,57.20
2018-05-14T16:56:12.705Z,55.80
2018-05-14T17:01:15.796Z,56.10
2018-05-14T17:06:18.889Z,56.10
2018-05-14T17:11:21.978Z,56.80
2018-05-14T17:16:26.212Z,57.50
2018-05-14T17:21:30.093Z,58.70
2018-05-14T17:26:35.728Z,57.50
2018-05-14T17:31:38.824Z,57.20
2018-05-14T17:36:42.666Z,56.90
2018-05-14T17:41:45.756Z,55.50
2018-05-14T17:46:48.847Z,53.70
2018-05-14T17:51:52.784Z,55.00
2018-05-14T17:56:56.634Z,55.80
2018-05-14T18:02:00.185Z,55.60
2018-05-14T18:07:03.678Z,57.40
2018-05-14T18:12:07.890Z,56.50
2018-05-14T18:17:14.454Z,55.20
2018-05-14T18:22:23.579Z,54.90
2018-05-14T18:32:35.623Z,55.00
2018-05-14T18:37:39.106Z,55.60
2018-05-14T18:42:42.189Z,56.00
2018-05-14T18:47:46.046Z,56.40
2018-05-14T18:52:50.510Z,56.80
2018-05-14T18:57:55.158Z,57.40
2018-05-14T19:08:02.715Z,58.80
2018-05-14T19:13:05.979Z,59.30
2018-05-14T19:18:09.470Z,61.00
2018-05-14T19:23:19.268Z,61.40
2018-05-14T19:28:28.349Z,64.10
2018-05-14T19:33:38.484Z,66.00
2018-05-14T19:38:42.707Z,66.30
2018-05-14T19:43:46.177Z,67.40
2018-05-14T19:48:50.405Z,69.60
2018-05-14T19:53:54.656Z,70.50
2018-05-14T19:58:59.687Z,74.80
2018-05-14T20:04:03.686Z,75.50
2018-05-14T20:09:07.152Z,77.60
2018-05-14T20:19:16.041Z,80.00
2018-05-14T20:24:19.890Z,81.20
2018-05-14T20:29:23.751Z,81.30
2018-05-14T20:34:28.491Z,81.70
2018-05-14T20:39:32.365Z,82.90
2018-05-14T20:49:41.100Z,83.90
2018-05-14T20:54:44.945Z,86.00
2018-05-14T20:59:48.524Z,86.60
2018-05-14T21:04:52.299Z,87.90
2018-05-14T21:09:55.397Z,87.10
2018-05-14T21:14:58.870Z,87.20
2018-05-14T21:20:02.723Z,87.30
2018-05-14T21:25:05.809Z,85.20
2018-05-14T21:30:08.913Z,84.20
2018-05-14T21:35:12.006Z,85.00
2018-05-14T21:40:15.082Z,86.00
2018-05-14T21:45:19.158Z,86.50
2018-05-14T21:50:22.281Z,87.40
2018-05-14T21:55:25.334Z,88.00
2018-05-14T22:00:29.552Z,88.30
2018-05-14T22:10:37.105Z,90.00
2018-05-14T22:15:40.602Z,90.30
2018-05-14T22:20:43.706Z,90.10
2018-05-14T22:25:48.349Z,90.10
2018-05-14T22:30:52.195Z,90.50
2018-05-14T22:41:00.142Z,90.80
2018-05-14T22:46:03.245Z,90.60
2018-05-14T22:51:06.326Z,90.50
2018-05-14T22:56:09.451Z,91.00
2018-05-14T23:01:13.673Z,91.40
2018-05-14T23:06:17.525Z,91.60
2018-05-14T23:11:20.628Z,91.60
2018-05-14T23:21:28.939Z,92.10
2018-05-14T23:26:32.014Z,92.30
2018-05-14T23:31:35.109Z,92.30
2018-05-14T23:36:38.970Z,92.80
2018-05-14T23:41:43.202Z,92.50
2018-05-14T23:56:55.925Z,91.80
